Archival Weather

Chicago O'Hare International

Chicago, Illinois (KORD)

Report from: Wednesday, February 16, 2022 9:11 PM CST
Current time: Saturday, February 4, 2023 10:38 PM CST

Current weather
Weather history
Weather forecast

Present weatherHeavy rain, mist
Temperature9.4°C (48.9°F)
Wind chill8.4°C (47.2°F)
Dew point7.8°C (46.0°F)
Winds 4 kts (2.1 m/s, 4.6 mph) West (270°)
Visibility4 mi. (6.4 km)
Clouds Scattered clouds 1,600 ft. (488 m)
Ceiling: Broken clouds 2,200 ft. (671 m)
Overcast 3,700 ft. (1,128 m)
Altimeter29.79 in.Hg (1009 mB)
Precipitiation0.07 in. (2 mm)
Relative humidity90 %
Density altitude-368 ft. (-112 m)
Remarks Automated weather observing station with precipitation discriminator
Flight conditions Marginal Visual Meteorological Conditions
Raw dataKORD 170311Z 27004KT 4SM +RA BR SCT016 BKN022 OVC037 09/08 A2979 RMK AO2 P0007 T00940078
An unhandled exception has occurred. See browser dev tools for details. Reload 🗙